sensor_id;sensor_type;location;lat;lon;timestamp;P1;durP1;ratioP1;P2;durP2;ratioP2
11048;SDS011;5577;42.706;23.160;2022-09-09T00:00:28;13.97;;;12.63;;
11048;SDS011;5577;42.706;23.160;2022-09-09T00:03:27;13.07;;;11.77;;
11048;SDS011;5577;42.706;23.160;2022-09-09T00:06:50;13.83;;;11.67;;
11048;SDS011;5577;42.706;23.160;2022-09-09T00:10:16;13.33;;;12.00;;
11048;SDS011;5577;42.706;23.160;2022-09-09T00:16:25;14.30;;;12.90;;
11048;SDS011;5577;42.706;23.160;2022-09-09T00:22:15;14.17;;;12.90;;
11048;SDS011;5577;42.706;23.160;2022-09-09T00:25:12;13.63;;;12.43;;
11048;SDS011;5577;42.706;23.160;2022-09-09T00:28:41;14.23;;;12.90;;
11048;SDS011;5577;42.706;23.160;2022-09-09T00:31:23;13.97;;;12.67;;
11048;SDS011;5577;42.706;23.160;2022-09-09T00:34:11;14.53;;;13.13;;
11048;SDS011;5577;42.706;23.160;2022-09-09T00:37:00;13.43;;;11.93;;
11048;SDS011;5577;42.706;23.160;2022-09-09T00:39:46;13.33;;;12.03;;
11048;SDS011;5577;42.706;23.160;2022-09-09T00:42:41;13.67;;;12.27;;
11048;SDS011;5577;42.706;23.160;2022-09-09T00:45:49;13.73;;;12.43;;
11048;SDS011;5577;42.706;23.160;2022-09-09T00:48:48;13.83;;;12.13;;
11048;SDS011;5577;42.706;23.160;2022-09-09T00:52:23;14.13;;;12.77;;
11048;SDS011;5577;42.706;23.160;2022-09-09T00:55:20;14.70;;;13.30;;
11048;SDS011;5577;42.706;23.160;2022-09-09T00:58:33;13.70;;;12.33;;
11048;SDS011;5577;42.706;23.160;2022-09-09T01:01:17;13.90;;;12.60;;
11048;SDS011;5577;42.706;23.160;2022-09-09T01:04:01;13.97;;;12.57;;
11048;SDS011;5577;42.706;23.160;2022-09-09T01:06:54;14.27;;;12.83;;
11048;SDS011;5577;42.706;23.160;2022-09-09T01:12:40;13.77;;;12.37;;
11048;SDS011;5577;42.706;23.160;2022-09-09T01:15:27;14.60;;;13.20;;
11048;SDS011;5577;42.706;23.160;2022-09-09T01:18:15;14.57;;;13.20;;
11048;SDS011;5577;42.706;23.160;2022-09-09T01:27:02;13.60;;;12.27;;
11048;SDS011;5577;42.706;23.160;2022-09-09T01:29:48;14.93;;;12.80;;
11048;SDS011;5577;42.706;23.160;2022-09-09T01:32:40;14.60;;;12.97;;
11048;SDS011;5577;42.706;23.160;2022-09-09T01:35:37;13.80;;;12.50;;
11048;SDS011;5577;42.706;23.160;2022-09-09T01:38:30;14.33;;;13.03;;
11048;SDS011;5577;42.706;23.160;2022-09-09T01:41:16;14.63;;;12.60;;
11048;SDS011;5577;42.706;23.160;2022-09-09T01:44:01;14.10;;;12.80;;
11048;SDS011;5577;42.706;23.160;2022-09-09T01:46:45;13.83;;;12.53;;
11048;SDS011;5577;42.706;23.160;2022-09-09T01:49:30;14.93;;;13.43;;
11048;SDS011;5577;42.706;23.160;2022-09-09T01:52:16;14.67;;;13.20;;
11048;SDS011;5577;42.706;23.160;2022-09-09T01:55:00;14.50;;;13.10;;
11048;SDS011;5577;42.706;23.160;2022-09-09T02:00:56;13.63;;;12.33;;
11048;SDS011;5577;42.706;23.160;2022-09-09T02:04:08;13.83;;;12.53;;
11048;SDS011;5577;42.706;23.160;2022-09-09T02:10:16;15.10;;;13.53;;
11048;SDS011;5577;42.706;23.160;2022-09-09T02:13:06;14.90;;;13.43;;
11048;SDS011;5577;42.706;23.160;2022-09-09T02:15:59;15.07;;;13.57;;
11048;SDS011;5577;42.706;23.160;2022-09-09T02:21:56;14.77;;;13.43;;
11048;SDS011;5577;42.706;23.160;2022-09-09T02:24:43;15.80;;;14.20;;
11048;SDS011;5577;42.706;23.160;2022-09-09T02:27:29;15.70;;;14.10;;
11048;SDS011;5577;42.706;23.160;2022-09-09T02:30:13;15.87;;;14.30;;
11048;SDS011;5577;42.706;23.160;2022-09-09T02:32:58;15.33;;;13.93;;
11048;SDS011;5577;42.706;23.160;2022-09-09T02:35:45;14.60;;;13.30;;
11048;SDS011;5577;42.706;23.160;2022-09-09T02:38:31;15.27;;;13.70;;
11048;SDS011;5577;42.706;23.160;2022-09-09T02:41:19;15.43;;;13.97;;
11048;SDS011;5577;42.706;23.160;2022-09-09T02:44:13;15.20;;;13.70;;
11048;SDS011;5577;42.706;23.160;2022-09-09T02:49:59;15.67;;;14.23;;
11048;SDS011;5577;42.706;23.160;2022-09-09T02:55:47;16.10;;;14.60;;
11048;SDS011;5577;42.706;23.160;2022-09-09T02:58:35;16.00;;;14.20;;
11048;SDS011;5577;42.706;23.160;2022-09-09T03:01:20;15.23;;;13.83;;
11048;SDS011;5577;42.706;23.160;2022-09-09T03:04:05;16.97;;;13.93;;
11048;SDS011;5577;42.706;23.160;2022-09-09T03:06:49;17.83;;;14.53;;
11048;SDS011;5577;42.706;23.160;2022-09-09T03:09:33;15.90;;;14.30;;
11048;SDS011;5577;42.706;23.160;2022-09-09T03:12:17;17.50;;;14.63;;
11048;SDS011;5577;42.706;23.160;2022-09-09T03:15:01;16.13;;;14.50;;
11048;SDS011;5577;42.706;23.160;2022-09-09T03:17:45;17.80;;;14.87;;
11048;SDS011;5577;42.706;23.160;2022-09-09T03:20:29;16.17;;;14.57;;
11048;SDS011;5577;42.706;23.160;2022-09-09T03:23:14;16.73;;;15.10;;
11048;SDS011;5577;42.706;23.160;2022-09-09T03:25:59;15.90;;;14.33;;
11048;SDS011;5577;42.706;23.160;2022-09-09T03:28:43;16.07;;;14.47;;
11048;SDS011;5577;42.706;23.160;2022-09-09T03:31:28;15.23;;;13.83;;
11048;SDS011;5577;42.706;23.160;2022-09-09T03:34:13;16.33;;;14.63;;
11048;SDS011;5577;42.706;23.160;2022-09-09T03:36:57;16.07;;;14.57;;
11048;SDS011;5577;42.706;23.160;2022-09-09T03:39:41;17.73;;;16.00;;
11048;SDS011;5577;42.706;23.160;2022-09-09T03:42:26;16.87;;;15.17;;
11048;SDS011;5577;42.706;23.160;2022-09-09T03:45:10;15.93;;;14.40;;
11048;SDS011;5577;42.706;23.160;2022-09-09T03:47:54;16.10;;;14.47;;
11048;SDS011;5577;42.706;23.160;2022-09-09T03:50:38;16.83;;;15.30;;
11048;SDS011;5577;42.706;23.160;2022-09-09T03:53:24;16.23;;;14.70;;
11048;SDS011;5577;42.706;23.160;2022-09-09T03:56:09;16.47;;;14.87;;
11048;SDS011;5577;42.706;23.160;2022-09-09T03:58:54;16.80;;;15.10;;
11048;SDS011;5577;42.706;23.160;2022-09-09T04:01:38;16.50;;;14.90;;
11048;SDS011;5577;42.706;23.160;2022-09-09T04:04:22;17.43;;;15.63;;
11048;SDS011;5577;42.706;23.160;2022-09-09T04:07:06;17.57;;;15.87;;
11048;SDS011;5577;42.706;23.160;2022-09-09T04:09:50;19.47;;;17.57;;
11048;SDS011;5577;42.706;23.160;2022-09-09T04:12:34;19.80;;;15.37;;
11048;SDS011;5577;42.706;23.160;2022-09-09T04:15:18;18.20;;;16.40;;
11048;SDS011;5577;42.706;23.160;2022-09-09T04:18:02;17.00;;;15.50;;
11048;SDS011;5577;42.706;23.160;2022-09-09T04:20:47;17.33;;;15.63;;
11048;SDS011;5577;42.706;23.160;2022-09-09T04:23:32;17.37;;;15.67;;
11048;SDS011;5577;42.706;23.160;2022-09-09T04:26:17;17.13;;;15.40;;
11048;SDS011;5577;42.706;23.160;2022-09-09T04:29:02;19.37;;;15.77;;
11048;SDS011;5577;42.706;23.160;2022-09-09T04:31:47;18.13;;;15.73;;
11048;SDS011;5577;42.706;23.160;2022-09-09T04:34:31;17.30;;;15.50;;
11048;SDS011;5577;42.706;23.160;2022-09-09T04:37:16;18.07;;;16.17;;
11048;SDS011;5577;42.706;23.160;2022-09-09T04:40:00;16.93;;;15.33;;
11048;SDS011;5577;42.706;23.160;2022-09-09T04:42:46;17.93;;;16.03;;
11048;SDS011;5577;42.706;23.160;2022-09-09T04:45:31;17.83;;;15.93;;
11048;SDS011;5577;42.706;23.160;2022-09-09T04:48:17;18.47;;;15.87;;
11048;SDS011;5577;42.706;23.160;2022-09-09T04:51:06;17.30;;;15.50;;
11048;SDS011;5577;42.706;23.160;2022-09-09T04:53:53;17.40;;;15.73;;
11048;SDS011;5577;42.706;23.160;2022-09-09T04:56:37;17.13;;;15.43;;
11048;SDS011;5577;42.706;23.160;2022-09-09T04:59:21;18.47;;;15.63;;
11048;SDS011;5577;42.706;23.160;2022-09-09T05:02:05;17.10;;;15.50;;
11048;SDS011;5577;42.706;23.160;2022-09-09T05:04:50;15.63;;;14.13;;
11048;SDS011;5577;42.706;23.160;2022-09-09T05:07:34;18.13;;;14.93;;
11048;SDS011;5577;42.706;23.160;2022-09-09T05:10:18;18.07;;;15.63;;
11048;SDS011;5577;42.706;23.160;2022-09-09T05:13:02;16.43;;;14.73;;
11048;SDS011;5577;42.706;23.160;2022-09-09T05:15:52;16.60;;;14.67;;
11048;SDS011;5577;42.706;23.160;2022-09-09T05:18:37;15.90;;;14.30;;
11048;SDS011;5577;42.706;23.160;2022-09-09T05:21:23;15.73;;;14.10;;
11048;SDS011;5577;42.706;23.160;2022-09-09T05:24:10;14.87;;;13.40;;
11048;SDS011;5577;42.706;23.160;2022-09-09T05:26:54;16.13;;;14.63;;
11048;SDS011;5577;42.706;23.160;2022-09-09T05:29:41;16.10;;;14.43;;
11048;SDS011;5577;42.706;23.160;2022-09-09T05:32:29;16.33;;;14.67;;
11048;SDS011;5577;42.706;23.160;2022-09-09T05:35:16;17.03;;;15.23;;
11048;SDS011;5577;42.706;23.160;2022-09-09T05:38:01;16.40;;;14.90;;
11048;SDS011;5577;42.706;23.160;2022-09-09T05:40:49;16.47;;;14.77;;
11048;SDS011;5577;42.706;23.160;2022-09-09T05:43:34;16.70;;;15.03;;
11048;SDS011;5577;42.706;23.160;2022-09-09T05:46:20;15.67;;;14.27;;
11048;SDS011;5577;42.706;23.160;2022-09-09T05:49:06;16.43;;;14.83;;
11048;SDS011;5577;42.706;23.160;2022-09-09T05:51:49;15.43;;;13.70;;
11048;SDS011;5577;42.706;23.160;2022-09-09T05:54:34;15.70;;;14.20;;
11048;SDS011;5577;42.706;23.160;2022-09-09T05:57:18;15.80;;;14.30;;
11048;SDS011;5577;42.706;23.160;2022-09-09T06:00:03;16.20;;;14.63;;
11048;SDS011;5577;42.706;23.160;2022-09-09T06:02:51;15.90;;;14.50;;
11048;SDS011;5577;42.706;23.160;2022-09-09T06:05:36;16.23;;;14.63;;
11048;SDS011;5577;42.706;23.160;2022-09-09T06:08:20;16.73;;;14.10;;
11048;SDS011;5577;42.706;23.160;2022-09-09T06:11:08;15.90;;;14.30;;
11048;SDS011;5577;42.706;23.160;2022-09-09T06:13:54;16.17;;;14.57;;
11048;SDS011;5577;42.706;23.160;2022-09-09T06:16:37;15.67;;;14.17;;
11048;SDS011;5577;42.706;23.160;2022-09-09T06:19:21;16.27;;;13.73;;
11048;SDS011;5577;42.706;23.160;2022-09-09T06:22:08;15.37;;;13.77;;
11048;SDS011;5577;42.706;23.160;2022-09-09T06:24:56;15.50;;;13.83;;
11048;SDS011;5577;42.706;23.160;2022-09-09T06:27:40;14.47;;;13.07;;
11048;SDS011;5577;42.706;23.160;2022-09-09T06:30:25;16.00;;;14.20;;
11048;SDS011;5577;42.706;23.160;2022-09-09T06:33:09;14.90;;;13.40;;
11048;SDS011;5577;42.706;23.160;2022-09-09T06:35:54;15.13;;;13.70;;
11048;SDS011;5577;42.706;23.160;2022-09-09T06:38:43;15.30;;;13.90;;
11048;SDS011;5577;42.706;23.160;2022-09-09T06:41:30;15.00;;;12.93;;
11048;SDS011;5577;42.706;23.160;2022-09-09T06:44:15;18.63;;;13.27;;
11048;SDS011;5577;42.706;23.160;2022-09-09T06:47:00;14.47;;;12.97;;
11048;SDS011;5577;42.706;23.160;2022-09-09T06:49:43;14.67;;;13.07;;
11048;SDS011;5577;42.706;23.160;2022-09-09T06:52:27;14.47;;;13.17;;
11048;SDS011;5577;42.706;23.160;2022-09-09T06:55:12;14.53;;;13.03;;
11048;SDS011;5577;42.706;23.160;2022-09-09T06:57:56;13.13;;;11.83;;
11048;SDS011;5577;42.706;23.160;2022-09-09T07:00:40;14.90;;;12.57;;
11048;SDS011;5577;42.706;23.160;2022-09-09T07:03:24;15.73;;;14.13;;
11048;SDS011;5577;42.706;23.160;2022-09-09T07:06:08;15.50;;;13.63;;
11048;SDS011;5577;42.706;23.160;2022-09-09T07:09:04;17.00;;;13.77;;
11048;SDS011;5577;42.706;23.160;2022-09-09T07:11:50;13.80;;;12.50;;
11048;SDS011;5577;42.706;23.160;2022-09-09T07:14:36;14.83;;;13.10;;
11048;SDS011;5577;42.706;23.160;2022-09-09T07:17:21;14.07;;;12.50;;
11048;SDS011;5577;42.706;23.160;2022-09-09T07:20:05;13.83;;;12.23;;
11048;SDS011;5577;42.706;23.160;2022-09-09T07:22:54;14.50;;;12.77;;
11048;SDS011;5577;42.706;23.160;2022-09-09T07:25:43;14.30;;;12.27;;
11048;SDS011;5577;42.706;23.160;2022-09-09T07:28:29;13.00;;;11.80;;
11048;SDS011;5577;42.706;23.160;2022-09-09T07:31:18;13.37;;;12.03;;
11048;SDS011;5577;42.706;23.160;2022-09-09T07:34:07;11.80;;;10.53;;
11048;SDS011;5577;42.706;23.160;2022-09-09T07:36:51;12.57;;;11.23;;
11048;SDS011;5577;42.706;23.160;2022-09-09T07:39:35;11.83;;;10.63;;
11048;SDS011;5577;42.706;23.160;2022-09-09T07:42:19;11.57;;;10.47;;
11048;SDS011;5577;42.706;23.160;2022-09-09T07:45:03;11.63;;;10.60;;
11048;SDS011;5577;42.706;23.160;2022-09-09T07:47:49;15.93;;;10.90;;
11048;SDS011;5577;42.706;23.160;2022-09-09T07:50:33;11.27;;;10.17;;
11048;SDS011;5577;42.706;23.160;2022-09-09T07:53:17;11.47;;;10.30;;
11048;SDS011;5577;42.706;23.160;2022-09-09T07:56:07;11.77;;;10.57;;
11048;SDS011;5577;42.706;23.160;2022-09-09T07:58:56;11.27;;;10.17;;
11048;SDS011;5577;42.706;23.160;2022-09-09T08:01:45;12.07;;;10.50;;
11048;SDS011;5577;42.706;23.160;2022-09-09T08:04:31;11.30;;;10.17;;
11048;SDS011;5577;42.706;23.160;2022-09-09T08:07:15;14.03;;;10.53;;
11048;SDS011;5577;42.706;23.160;2022-09-09T08:10:00;12.13;;;10.60;;
11048;SDS011;5577;42.706;23.160;2022-09-09T08:12:44;12.57;;;10.77;;
11048;SDS011;5577;42.706;23.160;2022-09-09T08:15:28;11.80;;;9.97;;
11048;SDS011;5577;42.706;23.160;2022-09-09T08:18:14;12.60;;;10.70;;
11048;SDS011;5577;42.706;23.160;2022-09-09T08:21:04;14.80;;;10.07;;
11048;SDS011;5577;42.706;23.160;2022-09-09T08:23:51;11.37;;;10.20;;
11048;SDS011;5577;42.706;23.160;2022-09-09T08:26:37;11.10;;;9.77;;
11048;SDS011;5577;42.706;23.160;2022-09-09T08:29:26;11.97;;;10.40;;
11048;SDS011;5577;42.706;23.160;2022-09-09T08:32:12;11.40;;;10.30;;
11048;SDS011;5577;42.706;23.160;2022-09-09T08:34:56;12.40;;;10.40;;
11048;SDS011;5577;42.706;23.160;2022-09-09T08:37:40;10.97;;;9.27;;
11048;SDS011;5577;42.706;23.160;2022-09-09T08:40:26;11.20;;;10.00;;
11048;SDS011;5577;42.706;23.160;2022-09-09T08:43:16;10.90;;;9.80;;
11048;SDS011;5577;42.706;23.160;2022-09-09T08:52:13;19.40;;;10.10;;
11048;SDS011;5577;42.706;23.160;2022-09-09T08:55:05;10.87;;;9.67;;
11048;SDS011;5577;42.706;23.160;2022-09-09T08:58:16;11.90;;;10.30;;
11048;SDS011;5577;42.706;23.160;2022-09-09T09:10:15;10.93;;;8.80;;
11048;SDS011;5577;42.706;23.160;2022-09-09T09:13:03;10.87;;;9.70;;
11048;SDS011;5577;42.706;23.160;2022-09-09T09:15:49;13.60;;;10.03;;
11048;SDS011;5577;42.706;23.160;2022-09-09T09:18:41;11.83;;;9.37;;
11048;SDS011;5577;42.706;23.160;2022-09-09T09:24:27;15.33;;;9.40;;
11048;SDS011;5577;42.706;23.160;2022-09-09T09:30:21;10.40;;;9.07;;
11048;SDS011;5577;42.706;23.160;2022-09-09T09:33:18;11.40;;;10.23;;
11048;SDS011;5577;42.706;23.160;2022-09-09T09:36:12;13.30;;;10.17;;
11048;SDS011;5577;42.706;23.160;2022-09-09T09:38:59;12.10;;;10.30;;
11048;SDS011;5577;42.706;23.160;2022-09-09T09:41:44;13.13;;;10.10;;
11048;SDS011;5577;42.706;23.160;2022-09-09T09:44:30;13.73;;;10.23;;
11048;SDS011;5577;42.706;23.160;2022-09-09T09:50:01;14.70;;;10.77;;
11048;SDS011;5577;42.706;23.160;2022-09-09T09:52:59;11.90;;;10.73;;
11048;SDS011;5577;42.706;23.160;2022-09-09T09:55:52;12.83;;;10.77;;
11048;SDS011;5577;42.706;23.160;2022-09-09T09:58:51;12.07;;;10.83;;
11048;SDS011;5577;42.706;23.160;2022-09-09T10:01:36;17.10;;;13.10;;
11048;SDS011;5577;42.706;23.160;2022-09-09T10:04:21;13.93;;;11.97;;
11048;SDS011;5577;42.706;23.160;2022-09-09T10:07:11;16.13;;;11.60;;
11048;SDS011;5577;42.706;23.160;2022-09-09T10:09:56;14.63;;;11.00;;
11048;SDS011;5577;42.706;23.160;2022-09-09T10:12:51;12.30;;;11.00;;
11048;SDS011;5577;42.706;23.160;2022-09-09T10:18:53;12.50;;;10.20;;
11048;SDS011;5577;42.706;23.160;2022-09-09T10:58:00;10.13;;;8.97;;
11048;SDS011;5577;42.706;23.160;2022-09-09T11:00:48;12.97;;;9.53;;
11048;SDS011;5577;42.706;23.160;2022-09-09T11:03:38;10.70;;;9.70;;
11048;SDS011;5577;42.706;23.160;2022-09-09T11:06:25;10.63;;;9.63;;
11048;SDS011;5577;42.706;23.160;2022-09-09T11:09:18;12.17;;;9.17;;
11048;SDS011;5577;42.706;23.160;2022-09-09T11:12:19;14.53;;;9.43;;
11048;SDS011;5577;42.706;23.160;2022-09-09T11:15:05;10.40;;;9.50;;
11048;SDS011;5577;42.706;23.160;2022-09-09T11:17:58;15.03;;;10.30;;
11048;SDS011;5577;42.706;23.160;2022-09-09T11:20:55;10.83;;;9.40;;
11048;SDS011;5577;42.706;23.160;2022-09-09T11:27:25;11.63;;;9.90;;
11048;SDS011;5577;42.706;23.160;2022-09-09T11:36:30;12.80;;;9.93;;
11048;SDS011;5577;42.706;23.160;2022-09-09T11:39:48;12.70;;;9.83;;
11048;SDS011;5577;42.706;23.160;2022-09-09T11:42:40;10.83;;;9.67;;
11048;SDS011;5577;42.706;23.160;2022-09-09T11:45:26;11.00;;;9.97;;
11048;SDS011;5577;42.706;23.160;2022-09-09T11:48:23;11.10;;;8.77;;
11048;SDS011;5577;42.706;23.160;2022-09-09T11:51:09;12.00;;;9.73;;
11048;SDS011;5577;42.706;23.160;2022-09-09T11:53:57;10.03;;;8.30;;
11048;SDS011;5577;42.706;23.160;2022-09-09T11:56:46;11.23;;;8.90;;
11048;SDS011;5577;42.706;23.160;2022-09-09T11:59:31;14.90;;;9.07;;
11048;SDS011;5577;42.706;23.160;2022-09-09T12:02:22;11.30;;;8.73;;
11048;SDS011;5577;42.706;23.160;2022-09-09T12:05:10;9.97;;;8.97;;
11048;SDS011;5577;42.706;23.160;2022-09-09T12:07:58;12.63;;;8.97;;
11048;SDS011;5577;42.706;23.160;2022-09-09T12:10:52;9.77;;;8.83;;
11048;SDS011;5577;42.706;23.160;2022-09-09T12:13:38;10.57;;;9.00;;
11048;SDS011;5577;42.706;23.160;2022-09-09T12:16:35;10.43;;;8.93;;
11048;SDS011;5577;42.706;23.160;2022-09-09T12:19:21;10.87;;;9.03;;
11048;SDS011;5577;42.706;23.160;2022-09-09T12:22:13;11.33;;;9.20;;
11048;SDS011;5577;42.706;23.160;2022-09-09T12:28:42;10.87;;;8.90;;
11048;SDS011;5577;42.706;23.160;2022-09-09T12:37:44;12.17;;;8.67;;
11048;SDS011;5577;42.706;23.160;2022-09-09T12:40:34;14.27;;;8.40;;
11048;SDS011;5577;42.706;23.160;2022-09-09T12:43:19;15.07;;;8.80;;
11048;SDS011;5577;42.706;23.160;2022-09-09T12:46:07;9.83;;;8.83;;
11048;SDS011;5577;42.706;23.160;2022-09-09T12:48:57;12.97;;;8.50;;
11048;SDS011;5577;42.706;23.160;2022-09-09T12:51:41;11.47;;;8.17;;
11048;SDS011;5577;42.706;23.160;2022-09-09T12:54:27;10.50;;;7.97;;
11048;SDS011;5577;42.706;23.160;2022-09-09T12:57:11;9.60;;;8.40;;
11048;SDS011;5577;42.706;23.160;2022-09-09T13:00:04;8.07;;;7.07;;
11048;SDS011;5577;42.706;23.160;2022-09-09T13:03:13;11.10;;;7.07;;
11048;SDS011;5577;42.706;23.160;2022-09-09T13:06:20;9.63;;;7.80;;
11048;SDS011;5577;42.706;23.160;2022-09-09T13:09:08;9.73;;;8.00;;
11048;SDS011;5577;42.706;23.160;2022-09-09T13:11:54;9.60;;;7.70;;
11048;SDS011;5577;42.706;23.160;2022-09-09T13:14:42;11.57;;;7.23;;
11048;SDS011;5577;42.706;23.160;2022-09-09T13:17:30;10.67;;;7.30;;
11048;SDS011;5577;42.706;23.160;2022-09-09T13:20:18;9.07;;;6.40;;
11048;SDS011;5577;42.706;23.160;2022-09-09T13:23:03;11.47;;;7.40;;
11048;SDS011;5577;42.706;23.160;2022-09-09T13:25:58;15.87;;;7.80;;
11048;SDS011;5577;42.706;23.160;2022-09-09T13:28:45;9.63;;;7.00;;
11048;SDS011;5577;42.706;23.160;2022-09-09T13:31:30;8.33;;;7.17;;
11048;SDS011;5577;42.706;23.160;2022-09-09T13:34:27;10.00;;;7.80;;
11048;SDS011;5577;42.706;23.160;2022-09-09T13:37:19;9.70;;;7.57;;
11048;SDS011;5577;42.706;23.160;2022-09-09T13:40:26;10.27;;;7.10;;
11048;SDS011;5577;42.706;23.160;2022-09-09T13:43:14;12.87;;;7.70;;
11048;SDS011;5577;42.706;23.160;2022-09-09T13:46:06;10.67;;;7.70;;
11048;SDS011;5577;42.706;23.160;2022-09-09T13:49:22;9.40;;;7.93;;
11048;SDS011;5577;42.706;23.160;2022-09-09T13:52:11;8.67;;;7.80;;
11048;SDS011;5577;42.706;23.160;2022-09-09T13:54:56;8.97;;;7.47;;
11048;SDS011;5577;42.706;23.160;2022-09-09T13:57:50;11.43;;;7.43;;
11048;SDS011;5577;42.706;23.160;2022-09-09T14:00:35;11.20;;;7.37;;
11048;SDS011;5577;42.706;23.160;2022-09-09T14:03:20;9.73;;;7.30;;
11048;SDS011;5577;42.706;23.160;2022-09-09T14:06:04;13.03;;;7.27;;
11048;SDS011;5577;42.706;23.160;2022-09-09T14:08:49;11.77;;;7.47;;
11048;SDS011;5577;42.706;23.160;2022-09-09T14:11:34;7.10;;;6.40;;
11048;SDS011;5577;42.706;23.160;2022-09-09T14:14:18;11.30;;;6.90;;
11048;SDS011;5577;42.706;23.160;2022-09-09T14:17:02;8.40;;;6.90;;
11048;SDS011;5577;42.706;23.160;2022-09-09T14:19:47;10.20;;;7.27;;
11048;SDS011;5577;42.706;23.160;2022-09-09T14:22:31;9.70;;;7.10;;
11048;SDS011;5577;42.706;23.160;2022-09-09T14:25:15;10.20;;;7.33;;
11048;SDS011;5577;42.706;23.160;2022-09-09T14:28:00;11.43;;;6.93;;
11048;SDS011;5577;42.706;23.160;2022-09-09T14:30:45;8.07;;;7.27;;
11048;SDS011;5577;42.706;23.160;2022-09-09T14:33:30;9.37;;;7.97;;
11048;SDS011;5577;42.706;23.160;2022-09-09T14:36:13;10.20;;;7.87;;
11048;SDS011;5577;42.706;23.160;2022-09-09T14:38:58;11.40;;;8.90;;
11048;SDS011;5577;42.706;23.160;2022-09-09T14:41:42;14.47;;;8.27;;
11048;SDS011;5577;42.706;23.160;2022-09-09T14:44:26;10.33;;;7.67;;
11048;SDS011;5577;42.706;23.160;2022-09-09T14:47:10;8.47;;;7.30;;
11048;SDS011;5577;42.706;23.160;2022-09-09T14:49:54;11.20;;;6.80;;
11048;SDS011;5577;42.706;23.160;2022-09-09T14:52:38;10.10;;;7.27;;
11048;SDS011;5577;42.706;23.160;2022-09-09T14:55:22;12.23;;;7.80;;
11048;SDS011;5577;42.706;23.160;2022-09-09T14:58:06;11.87;;;7.57;;
11048;SDS011;5577;42.706;23.160;2022-09-09T15:00:50;10.60;;;7.83;;
11048;SDS011;5577;42.706;23.160;2022-09-09T15:03:34;10.73;;;7.90;;
11048;SDS011;5577;42.706;23.160;2022-09-09T15:06:18;12.13;;;8.23;;
11048;SDS011;5577;42.706;23.160;2022-09-09T15:09:04;10.27;;;8.00;;
11048;SDS011;5577;42.706;23.160;2022-09-09T15:11:49;12.67;;;8.30;;
11048;SDS011;5577;42.706;23.160;2022-09-09T15:14:33;11.77;;;7.97;;
11048;SDS011;5577;42.706;23.160;2022-09-09T15:17:18;11.73;;;7.97;;
11048;SDS011;5577;42.706;23.160;2022-09-09T15:20:03;11.23;;;8.43;;
11048;SDS011;5577;42.706;23.160;2022-09-09T15:22:49;12.00;;;8.00;;
11048;SDS011;5577;42.706;23.160;2022-09-09T15:25:34;10.37;;;7.80;;
11048;SDS011;5577;42.706;23.160;2022-09-09T15:28:18;8.20;;;7.17;;
11048;SDS011;5577;42.706;23.160;2022-09-09T15:31:01;9.87;;;7.37;;
11048;SDS011;5577;42.706;23.160;2022-09-09T15:34:00;9.80;;;7.13;;
11048;SDS011;5577;42.706;23.160;2022-09-09T15:36:45;10.37;;;7.77;;
11048;SDS011;5577;42.706;23.160;2022-09-09T15:39:29;10.77;;;7.77;;
11048;SDS011;5577;42.706;23.160;2022-09-09T15:42:13;9.43;;;7.50;;
11048;SDS011;5577;42.706;23.160;2022-09-09T15:44:57;11.27;;;8.00;;
11048;SDS011;5577;42.706;23.160;2022-09-09T15:47:41;8.90;;;7.57;;
11048;SDS011;5577;42.706;23.160;2022-09-09T15:50:25;8.10;;;7.30;;
11048;SDS011;5577;42.706;23.160;2022-09-09T15:53:10;11.97;;;7.77;;
11048;SDS011;5577;42.706;23.160;2022-09-09T15:55:55;10.03;;;7.50;;
11048;SDS011;5577;42.706;23.160;2022-09-09T15:58:39;12.10;;;9.40;;
11048;SDS011;5577;42.706;23.160;2022-09-09T16:01:24;12.50;;;8.47;;
11048;SDS011;5577;42.706;23.160;2022-09-09T16:04:08;14.23;;;9.40;;
11048;SDS011;5577;42.706;23.160;2022-09-09T16:06:54;12.27;;;8.90;;
11048;SDS011;5577;42.706;23.160;2022-09-09T16:09:48;12.70;;;9.03;;
11048;SDS011;5577;42.706;23.160;2022-09-09T16:12:35;13.43;;;9.53;;
11048;SDS011;5577;42.706;23.160;2022-09-09T16:15:19;11.23;;;8.70;;
11048;SDS011;5577;42.706;23.160;2022-09-09T16:18:06;12.40;;;8.57;;
11048;SDS011;5577;42.706;23.160;2022-09-09T16:20:53;10.83;;;9.03;;
11048;SDS011;5577;42.706;23.160;2022-09-09T16:23:38;9.67;;;8.57;;
11048;SDS011;5577;42.706;23.160;2022-09-09T16:26:22;12.00;;;8.17;;
11048;SDS011;5577;42.706;23.160;2022-09-09T16:29:06;11.33;;;8.93;;
11048;SDS011;5577;42.706;23.160;2022-09-09T16:31:51;16.40;;;9.97;;
11048;SDS011;5577;42.706;23.160;2022-09-09T16:34:35;12.87;;;8.43;;
11048;SDS011;5577;42.706;23.160;2022-09-09T16:37:19;12.03;;;8.60;;
11048;SDS011;5577;42.706;23.160;2022-09-09T16:40:03;11.97;;;8.83;;
11048;SDS011;5577;42.706;23.160;2022-09-09T16:42:48;11.87;;;9.40;;
11048;SDS011;5577;42.706;23.160;2022-09-09T16:45:32;10.27;;;8.87;;
11048;SDS011;5577;42.706;23.160;2022-09-09T16:48:16;9.93;;;8.60;;
11048;SDS011;5577;42.706;23.160;2022-09-09T16:51:01;12.37;;;9.10;;
11048;SDS011;5577;42.706;23.160;2022-09-09T16:53:55;13.30;;;9.23;;
11048;SDS011;5577;42.706;23.160;2022-09-09T16:56:44;11.07;;;8.83;;
11048;SDS011;5577;42.706;23.160;2022-09-09T16:59:30;13.17;;;8.93;;
11048;SDS011;5577;42.706;23.160;2022-09-09T17:02:15;13.27;;;9.73;;
11048;SDS011;5577;42.706;23.160;2022-09-09T17:04:59;12.93;;;9.57;;
11048;SDS011;5577;42.706;23.160;2022-09-09T17:07:43;11.67;;;9.63;;
11048;SDS011;5577;42.706;23.160;2022-09-09T17:10:27;11.50;;;9.93;;
11048;SDS011;5577;42.706;23.160;2022-09-09T17:13:11;11.20;;;9.57;;
11048;SDS011;5577;42.706;23.160;2022-09-09T17:15:56;11.30;;;9.87;;
11048;SDS011;5577;42.706;23.160;2022-09-09T17:18:41;13.63;;;9.40;;
11048;SDS011;5577;42.706;23.160;2022-09-09T17:21:25;14.23;;;10.10;;
11048;SDS011;5577;42.706;23.160;2022-09-09T17:24:11;15.30;;;10.27;;
11048;SDS011;5577;42.706;23.160;2022-09-09T17:26:55;12.67;;;10.03;;
11048;SDS011;5577;42.706;23.160;2022-09-09T17:29:40;11.97;;;10.17;;
11048;SDS011;5577;42.706;23.160;2022-09-09T17:32:23;12.27;;;10.57;;
11048;SDS011;5577;42.706;23.160;2022-09-09T17:35:08;14.10;;;9.87;;
11048;SDS011;5577;42.706;23.160;2022-09-09T17:37:53;14.00;;;10.23;;
11048;SDS011;5577;42.706;23.160;2022-09-09T17:40:38;12.27;;;10.60;;
11048;SDS011;5577;42.706;23.160;2022-09-09T17:43:21;13.57;;;11.23;;
11048;SDS011;5577;42.706;23.160;2022-09-09T17:48:59;17.07;;;12.23;;
11048;SDS011;5577;42.706;23.160;2022-09-09T17:51:46;17.37;;;12.73;;
11048;SDS011;5577;42.706;23.160;2022-09-09T17:54:31;17.70;;;12.57;;
11048;SDS011;5577;42.706;23.160;2022-09-09T17:57:16;16.20;;;12.57;;
11048;SDS011;5577;42.706;23.160;2022-09-09T18:00:06;14.37;;;12.70;;
11048;SDS011;5577;42.706;23.160;2022-09-09T18:02:50;16.60;;;12.47;;
11048;SDS011;5577;42.706;23.160;2022-09-09T18:05:35;18.17;;;13.57;;
11048;SDS011;5577;42.706;23.160;2022-09-09T18:08:19;25.07;;;17.10;;
11048;SDS011;5577;42.706;23.160;2022-09-09T18:11:03;17.73;;;14.37;;
11048;SDS011;5577;42.706;23.160;2022-09-09T18:13:48;16.13;;;13.23;;
11048;SDS011;5577;42.706;23.160;2022-09-09T18:16:34;14.97;;;11.50;;
11048;SDS011;5577;42.706;23.160;2022-09-09T18:19:19;13.33;;;11.43;;
11048;SDS011;5577;42.706;23.160;2022-09-09T18:22:05;13.20;;;11.13;;
11048;SDS011;5577;42.706;23.160;2022-09-09T18:24:50;13.90;;;11.37;;